sensor_id;sensor_type;location;lat;lon;timestamp;P1;durP1;ratioP1;P2;durP2;ratioP2
84925;SDS011;75187;48.190;16.294;2024-01-30T00:02:15;20.08;;;10.73;;
84925;SDS011;75187;48.190;16.294;2024-01-30T00:04:41;19.75;;;10.73;;
84925;SDS011;75187;48.190;16.294;2024-01-30T00:07:06;14.57;;;9.65;;
84925;SDS011;75187;48.190;16.294;2024-01-30T00:09:32;18.60;;;9.52;;
84925;SDS011;75187;48.190;16.294;2024-01-30T00:11:57;16.73;;;9.70;;
84925;SDS011;75187;48.190;16.294;2024-01-30T00:14:23;20.00;;;10.20;;
84925;SDS011;75187;48.190;16.294;2024-01-30T00:16:48;17.08;;;9.88;;
84925;SDS011;75187;48.190;16.294;2024-01-30T00:19:14;15.95;;;9.50;;
84925;SDS011;75187;48.190;16.294;2024-01-30T00:21:39;15.73;;;9.07;;
84925;SDS011;75187;48.190;16.294;2024-01-30T00:24:05;17.83;;;10.32;;
84925;SDS011;75187;48.190;16.294;2024-01-30T00:26:30;17.63;;;11.00;;
84925;SDS011;75187;48.190;16.294;2024-01-30T00:28:55;16.33;;;9.52;;
84925;SDS011;75187;48.190;16.294;2024-01-30T00:31:21;14.18;;;10.13;;
84925;SDS011;75187;48.190;16.294;2024-01-30T00:33:46;17.77;;;9.70;;
84925;SDS011;75187;48.190;16.294;2024-01-30T00:36:11;22.38;;;10.68;;
84925;SDS011;75187;48.190;16.294;2024-01-30T00:38:37;19.25;;;10.32;;
84925;SDS011;75187;48.190;16.294;2024-01-30T00:41:02;16.55;;;10.00;;
84925;SDS011;75187;48.190;16.294;2024-01-30T00:43:28;18.83;;;9.48;;
84925;SDS011;75187;48.190;16.294;2024-01-30T00:45:54;18.70;;;9.88;;
84925;SDS011;75187;48.190;16.294;2024-01-30T00:48:19;14.18;;;9.27;;
84925;SDS011;75187;48.190;16.294;2024-01-30T00:50:45;23.90;;;9.93;;
84925;SDS011;75187;48.190;16.294;2024-01-30T00:53:10;17.75;;;10.20;;
84925;SDS011;75187;48.190;16.294;2024-01-30T00:55:36;20.45;;;9.77;;
84925;SDS011;75187;48.190;16.294;2024-01-30T00:58:01;15.48;;;9.18;;
84925;SDS011;75187;48.190;16.294;2024-01-30T01:00:27;19.83;;;10.30;;
84925;SDS011;75187;48.190;16.294;2024-01-30T01:02:57;21.15;;;9.48;;
84925;SDS011;75187;48.190;16.294;2024-01-30T01:05:25;19.75;;;10.63;;
84925;SDS011;75187;48.190;16.294;2024-01-30T01:07:50;18.27;;;10.40;;
84925;SDS011;75187;48.190;16.294;2024-01-30T01:10:16;18.02;;;9.70;;
84925;SDS011;75187;48.190;16.294;2024-01-30T01:12:42;20.10;;;10.95;;
84925;SDS011;75187;48.190;16.294;2024-01-30T01:15:08;16.73;;;10.90;;
84925;SDS011;75187;48.190;16.294;2024-01-30T01:17:35;19.85;;;11.52;;
84925;SDS011;75187;48.190;16.294;2024-01-30T01:20:01;17.70;;;10.43;;
84925;SDS011;75187;48.190;16.294;2024-01-30T01:22:27;20.42;;;10.95;;
84925;SDS011;75187;48.190;16.294;2024-01-30T01:24:53;18.23;;;10.45;;
84925;SDS011;75187;48.190;16.294;2024-01-30T01:27:18;18.05;;;10.75;;
84925;SDS011;75187;48.190;16.294;2024-01-30T01:29:43;18.70;;;10.70;;
84925;SDS011;75187;48.190;16.294;2024-01-30T01:32:10;23.73;;;11.50;;
84925;SDS011;75187;48.190;16.294;2024-01-30T01:34:36;20.42;;;10.88;;
84925;SDS011;75187;48.190;16.294;2024-01-30T01:37:01;16.00;;;9.88;;
84925;SDS011;75187;48.190;16.294;2024-01-30T01:39:27;19.75;;;9.70;;
84925;SDS011;75187;48.190;16.294;2024-01-30T01:41:52;19.23;;;10.47;;
84925;SDS011;75187;48.190;16.294;2024-01-30T01:44:17;21.55;;;10.95;;
84925;SDS011;75187;48.190;16.294;2024-01-30T01:46:43;19.33;;;10.13;;
84925;SDS011;75187;48.190;16.294;2024-01-30T01:49:09;18.52;;;11.88;;
84925;SDS011;75187;48.190;16.294;2024-01-30T01:51:35;21.02;;;10.27;;
84925;SDS011;75187;48.190;16.294;2024-01-30T01:54:02;19.85;;;10.73;;
84925;SDS011;75187;48.190;16.294;2024-01-30T01:56:28;21.92;;;12.02;;
84925;SDS011;75187;48.190;16.294;2024-01-30T01:58:55;19.90;;;10.25;;
84925;SDS011;75187;48.190;16.294;2024-01-30T02:01:32;15.60;;;10.77;;
84925;SDS011;75187;48.190;16.294;2024-01-30T02:03:59;17.02;;;9.93;;
84925;SDS011;75187;48.190;16.294;2024-01-30T02:06:25;24.27;;;12.05;;
84925;SDS011;75187;48.190;16.294;2024-01-30T02:08:51;18.98;;;10.55;;
84925;SDS011;75187;48.190;16.294;2024-01-30T02:11:16;17.05;;;10.43;;
84925;SDS011;75187;48.190;16.294;2024-01-30T02:13:43;20.65;;;11.02;;
84925;SDS011;75187;48.190;16.294;2024-01-30T02:16:08;21.30;;;11.60;;
84925;SDS011;75187;48.190;16.294;2024-01-30T02:18:33;26.37;;;11.00;;
84925;SDS011;75187;48.190;16.294;2024-01-30T02:20:59;15.32;;;9.70;;
84925;SDS011;75187;48.190;16.294;2024-01-30T02:23:29;20.40;;;10.77;;
84925;SDS011;75187;48.190;16.294;2024-01-30T02:25:57;20.40;;;10.82;;
84925;SDS011;75187;48.190;16.294;2024-01-30T02:28:22;22.43;;;11.27;;
84925;SDS011;75187;48.190;16.294;2024-01-30T02:30:47;19.17;;;10.65;;
84925;SDS011;75187;48.190;16.294;2024-01-30T02:33:13;17.40;;;10.02;;
84925;SDS011;75187;48.190;16.294;2024-01-30T02:35:38;22.92;;;10.90;;
84925;SDS011;75187;48.190;16.294;2024-01-30T02:38:04;22.13;;;11.25;;
84925;SDS011;75187;48.190;16.294;2024-01-30T02:40:30;17.98;;;11.55;;
84925;SDS011;75187;48.190;16.294;2024-01-30T02:42:57;18.42;;;9.90;;
84925;SDS011;75187;48.190;16.294;2024-01-30T02:45:24;20.63;;;11.23;;
84925;SDS011;75187;48.190;16.294;2024-01-30T02:47:49;17.15;;;10.35;;
84925;SDS011;75187;48.190;16.294;2024-01-30T02:50:15;17.20;;;10.23;;
84925;SDS011;75187;48.190;16.294;2024-01-30T02:52:41;23.55;;;10.90;;
84925;SDS011;75187;48.190;16.294;2024-01-30T02:55:08;16.38;;;10.20;;
84925;SDS011;75187;48.190;16.294;2024-01-30T02:57:34;17.98;;;9.52;;
84925;SDS011;75187;48.190;16.294;2024-01-30T02:59:59;16.83;;;9.77;;
84925;SDS011;75187;48.190;16.294;2024-01-30T03:02:25;18.08;;;10.55;;
84925;SDS011;75187;48.190;16.294;2024-01-30T03:04:50;16.83;;;10.70;;
84925;SDS011;75187;48.190;16.294;2024-01-30T03:07:16;16.35;;;9.70;;
84925;SDS011;75187;48.190;16.294;2024-01-30T03:09:41;20.43;;;11.40;;
84925;SDS011;75187;48.190;16.294;2024-01-30T03:12:10;20.08;;;11.30;;
84925;SDS011;75187;48.190;16.294;2024-01-30T03:14:35;18.27;;;11.13;;
84925;SDS011;75187;48.190;16.294;2024-01-30T03:17:00;21.73;;;11.17;;
84925;SDS011;75187;48.190;16.294;2024-01-30T03:19:26;22.70;;;11.80;;
84925;SDS011;75187;48.190;16.294;2024-01-30T03:21:52;19.07;;;10.10;;
84925;SDS011;75187;48.190;16.294;2024-01-30T03:24:18;18.85;;;11.65;;
84925;SDS011;75187;48.190;16.294;2024-01-30T03:26:43;21.00;;;11.30;;
84925;SDS011;75187;48.190;16.294;2024-01-30T03:29:09;18.90;;;10.80;;
84925;SDS011;75187;48.190;16.294;2024-01-30T03:31:34;20.17;;;10.27;;
84925;SDS011;75187;48.190;16.294;2024-01-30T03:34:00;17.15;;;11.05;;
84925;SDS011;75187;48.190;16.294;2024-01-30T03:36:26;18.52;;;10.45;;
84925;SDS011;75187;48.190;16.294;2024-01-30T03:38:51;19.33;;;11.23;;
84925;SDS011;75187;48.190;16.294;2024-01-30T03:41:17;19.83;;;11.70;;
84925;SDS011;75187;48.190;16.294;2024-01-30T03:43:42;21.80;;;10.67;;
84925;SDS011;75187;48.190;16.294;2024-01-30T03:46:07;20.42;;;10.65;;
84925;SDS011;75187;48.190;16.294;2024-01-30T03:48:33;17.50;;;10.32;;
84925;SDS011;75187;48.190;16.294;2024-01-30T03:50:58;20.98;;;9.98;;
84925;SDS011;75187;48.190;16.294;2024-01-30T03:53:23;18.48;;;10.52;;
84925;SDS011;75187;48.190;16.294;2024-01-30T03:55:49;16.27;;;9.98;;
84925;SDS011;75187;48.190;16.294;2024-01-30T03:58:14;20.30;;;10.95;;
84925;SDS011;75187;48.190;16.294;2024-01-30T04:00:40;21.55;;;11.35;;
84925;SDS011;75187;48.190;16.294;2024-01-30T04:03:06;17.35;;;10.30;;
84925;SDS011;75187;48.190;16.294;2024-01-30T04:05:31;18.85;;;10.05;;
84925;SDS011;75187;48.190;16.294;2024-01-30T04:07:57;17.38;;;9.82;;
84925;SDS011;75187;48.190;16.294;2024-01-30T04:10:23;18.95;;;9.38;;
84925;SDS011;75187;48.190;16.294;2024-01-30T04:12:49;20.05;;;10.98;;
84925;SDS011;75187;48.190;16.294;2024-01-30T04:15:14;16.90;;;9.60;;
84925;SDS011;75187;48.190;16.294;2024-01-30T04:17:40;15.95;;;9.23;;
84925;SDS011;75187;48.190;16.294;2024-01-30T04:20:05;19.53;;;11.03;;
84925;SDS011;75187;48.190;16.294;2024-01-30T04:22:31;20.27;;;10.80;;
84925;SDS011;75187;48.190;16.294;2024-01-30T04:24:57;16.35;;;9.63;;
84925;SDS011;75187;48.190;16.294;2024-01-30T04:27:22;19.85;;;9.20;;
84925;SDS011;75187;48.190;16.294;2024-01-30T04:29:47;20.65;;;9.88;;
84925;SDS011;75187;48.190;16.294;2024-01-30T04:32:13;25.13;;;11.13;;
84925;SDS011;75187;48.190;16.294;2024-01-30T04:34:38;18.15;;;10.18;;
84925;SDS011;75187;48.190;16.294;2024-01-30T04:37:04;17.23;;;9.25;;
84925;SDS011;75187;48.190;16.294;2024-01-30T04:39:29;16.75;;;8.70;;
84925;SDS011;75187;48.190;16.294;2024-01-30T04:41:54;16.87;;;11.23;;
84925;SDS011;75187;48.190;16.294;2024-01-30T04:44:20;19.50;;;10.48;;
84925;SDS011;75187;48.190;16.294;2024-01-30T04:46:45;19.52;;;10.18;;
84925;SDS011;75187;48.190;16.294;2024-01-30T04:49:11;16.58;;;9.82;;
84925;SDS011;75187;48.190;16.294;2024-01-30T04:51:36;21.55;;;10.23;;
84925;SDS011;75187;48.190;16.294;2024-01-30T04:54:01;16.80;;;9.40;;
84925;SDS011;75187;48.190;16.294;2024-01-30T04:56:27;17.63;;;10.90;;
84925;SDS011;75187;48.190;16.294;2024-01-30T04:58:52;21.65;;;10.98;;
84925;SDS011;75187;48.190;16.294;2024-01-30T05:01:18;19.30;;;10.17;;
84925;SDS011;75187;48.190;16.294;2024-01-30T05:03:43;17.55;;;10.30;;
84925;SDS011;75187;48.190;16.294;2024-01-30T05:06:09;17.98;;;10.15;;
84925;SDS011;75187;48.190;16.294;2024-01-30T05:08:34;15.63;;;9.93;;
84925;SDS011;75187;48.190;16.294;2024-01-30T05:11:04;15.85;;;9.85;;
84925;SDS011;75187;48.190;16.294;2024-01-30T05:13:31;19.95;;;10.88;;
84925;SDS011;75187;48.190;16.294;2024-01-30T05:15:56;15.93;;;10.23;;
84925;SDS011;75187;48.190;16.294;2024-01-30T05:18:22;20.75;;;10.80;;
84925;SDS011;75187;48.190;16.294;2024-01-30T05:20:48;16.60;;;10.13;;
84925;SDS011;75187;48.190;16.294;2024-01-30T05:23:14;19.67;;;10.57;;
84925;SDS011;75187;48.190;16.294;2024-01-30T05:25:40;20.93;;;11.10;;
84925;SDS011;75187;48.190;16.294;2024-01-30T05:28:05;18.50;;;10.63;;
84925;SDS011;75187;48.190;16.294;2024-01-30T05:30:31;19.65;;;10.80;;
84925;SDS011;75187;48.190;16.294;2024-01-30T05:32:56;19.00;;;10.87;;
84925;SDS011;75187;48.190;16.294;2024-01-30T05:35:21;22.13;;;11.50;;
84925;SDS011;75187;48.190;16.294;2024-01-30T05:37:49;18.08;;;10.48;;
84925;SDS011;75187;48.190;16.294;2024-01-30T05:40:16;21.88;;;11.50;;
84925;SDS011;75187;48.190;16.294;2024-01-30T05:42:42;19.75;;;11.75;;
84925;SDS011;75187;48.190;16.294;2024-01-30T05:45:07;24.20;;;12.57;;
84925;SDS011;75187;48.190;16.294;2024-01-30T05:47:33;20.08;;;11.20;;
84925;SDS011;75187;48.190;16.294;2024-01-30T05:49:59;23.50;;;11.98;;
84925;SDS011;75187;48.190;16.294;2024-01-30T05:52:24;24.63;;;11.77;;
84925;SDS011;75187;48.190;16.294;2024-01-30T05:54:50;20.80;;;11.95;;
84925;SDS011;75187;48.190;16.294;2024-01-30T05:57:15;23.98;;;12.60;;
84925;SDS011;75187;48.190;16.294;2024-01-30T05:59:41;27.02;;;12.35;;
84925;SDS011;75187;48.190;16.294;2024-01-30T06:02:06;22.23;;;11.45;;
84925;SDS011;75187;48.190;16.294;2024-01-30T06:04:32;22.17;;;11.47;;
84925;SDS011;75187;48.190;16.294;2024-01-30T06:06:57;22.52;;;12.45;;
84925;SDS011;75187;48.190;16.294;2024-01-30T06:09:22;25.27;;;11.68;;
84925;SDS011;75187;48.190;16.294;2024-01-30T06:11:48;21.40;;;11.50;;
84925;SDS011;75187;48.190;16.294;2024-01-30T06:14:13;20.33;;;11.15;;
84925;SDS011;75187;48.190;16.294;2024-01-30T06:16:38;19.50;;;11.30;;
84925;SDS011;75187;48.190;16.294;2024-01-30T06:19:04;17.90;;;11.18;;
84925;SDS011;75187;48.190;16.294;2024-01-30T06:21:30;20.77;;;11.93;;
84925;SDS011;75187;48.190;16.294;2024-01-30T06:23:57;21.00;;;12.23;;
84925;SDS011;75187;48.190;16.294;2024-01-30T06:26:22;23.48;;;12.15;;
84925;SDS011;75187;48.190;16.294;2024-01-30T06:28:47;22.33;;;12.05;;
84925;SDS011;75187;48.190;16.294;2024-01-30T06:31:13;21.03;;;11.23;;
84925;SDS011;75187;48.190;16.294;2024-01-30T06:33:38;19.02;;;11.88;;
84925;SDS011;75187;48.190;16.294;2024-01-30T06:36:04;19.33;;;11.40;;
84925;SDS011;75187;48.190;16.294;2024-01-30T06:38:29;20.27;;;12.02;;
84925;SDS011;75187;48.190;16.294;2024-01-30T06:40:54;22.97;;;11.23;;
84925;SDS011;75187;48.190;16.294;2024-01-30T06:43:20;21.37;;;11.50;;
84925;SDS011;75187;48.190;16.294;2024-01-30T06:45:45;22.47;;;11.47;;
84925;SDS011;75187;48.190;16.294;2024-01-30T06:48:11;29.45;;;12.32;;
84925;SDS011;75187;48.190;16.294;2024-01-30T06:50:36;19.27;;;11.30;;
84925;SDS011;75187;48.190;16.294;2024-01-30T06:53:01;21.83;;;11.43;;
84925;SDS011;75187;48.190;16.294;2024-01-30T06:55:27;19.52;;;10.82;;
84925;SDS011;75187;48.190;16.294;2024-01-30T06:57:53;19.75;;;10.90;;
84925;SDS011;75187;48.190;16.294;2024-01-30T07:00:18;21.63;;;10.27;;
84925;SDS011;75187;48.190;16.294;2024-01-30T07:02:44;22.40;;;12.15;;
84925;SDS011;75187;48.190;16.294;2024-01-30T07:05:10;24.15;;;12.52;;
84925;SDS011;75187;48.190;16.294;2024-01-30T07:07:35;19.02;;;11.75;;
84925;SDS011;75187;48.190;16.294;2024-01-30T07:10:01;22.65;;;11.43;;
84925;SDS011;75187;48.190;16.294;2024-01-30T07:12:26;24.92;;;12.32;;
84925;SDS011;75187;48.190;16.294;2024-01-30T07:14:52;23.95;;;12.38;;
84925;SDS011;75187;48.190;16.294;2024-01-30T07:17:17;22.95;;;12.60;;
84925;SDS011;75187;48.190;16.294;2024-01-30T07:19:43;24.65;;;11.38;;
84925;SDS011;75187;48.190;16.294;2024-01-30T07:22:08;21.05;;;12.25;;
84925;SDS011;75187;48.190;16.294;2024-01-30T07:24:33;21.60;;;12.02;;
84925;SDS011;75187;48.190;16.294;2024-01-30T07:26:59;20.75;;;13.23;;
84925;SDS011;75187;48.190;16.294;2024-01-30T07:29:24;23.75;;;12.70;;
84925;SDS011;75187;48.190;16.294;2024-01-30T07:31:50;24.30;;;14.20;;
84925;SDS011;75187;48.190;16.294;2024-01-30T07:34:15;33.55;;;18.92;;
84925;SDS011;75187;48.190;16.294;2024-01-30T07:36:40;19.92;;;11.70;;
84925;SDS011;75187;48.190;16.294;2024-01-30T07:39:06;19.00;;;11.38;;
84925;SDS011;75187;48.190;16.294;2024-01-30T07:41:31;19.33;;;11.23;;
84925;SDS011;75187;48.190;16.294;2024-01-30T07:43:57;21.98;;;11.55;;
84925;SDS011;75187;48.190;16.294;2024-01-30T07:46:22;20.25;;;11.95;;
84925;SDS011;75187;48.190;16.294;2024-01-30T07:48:48;20.90;;;11.15;;
84925;SDS011;75187;48.190;16.294;2024-01-30T07:51:13;18.63;;;11.23;;
84925;SDS011;75187;48.190;16.294;2024-01-30T07:53:39;21.17;;;10.90;;
84925;SDS011;75187;48.190;16.294;2024-01-30T07:56:07;20.55;;;11.00;;
84925;SDS011;75187;48.190;16.294;2024-01-30T07:58:33;20.63;;;10.83;;
84925;SDS011;75187;48.190;16.294;2024-01-30T08:00:58;20.77;;;10.65;;
84925;SDS011;75187;48.190;16.294;2024-01-30T08:03:25;20.60;;;11.32;;
84925;SDS011;75187;48.190;16.294;2024-01-30T08:05:50;20.80;;;11.98;;
84925;SDS011;75187;48.190;16.294;2024-01-30T08:08:16;24.33;;;10.30;;
84925;SDS011;75187;48.190;16.294;2024-01-30T08:10:41;21.10;;;11.40;;
84925;SDS011;75187;48.190;16.294;2024-01-30T08:13:07;18.67;;;11.45;;
84925;SDS011;75187;48.190;16.294;2024-01-30T08:15:33;18.77;;;10.88;;
84925;SDS011;75187;48.190;16.294;2024-01-30T08:17:59;18.40;;;11.18;;
84925;SDS011;75187;48.190;16.294;2024-01-30T08:20:25;19.50;;;10.52;;
84925;SDS011;75187;48.190;16.294;2024-01-30T08:22:50;18.55;;;10.63;;
84925;SDS011;75187;48.190;16.294;2024-01-30T08:25:16;18.63;;;10.38;;
84925;SDS011;75187;48.190;16.294;2024-01-30T08:27:41;18.23;;;10.73;;
84925;SDS011;75187;48.190;16.294;2024-01-30T08:30:07;18.02;;;10.93;;
84925;SDS011;75187;48.190;16.294;2024-01-30T08:32:33;20.23;;;10.52;;
84925;SDS011;75187;48.190;16.294;2024-01-30T08:34:59;19.38;;;10.95;;
84925;SDS011;75187;48.190;16.294;2024-01-30T08:37:24;17.85;;;10.43;;
84925;SDS011;75187;48.190;16.294;2024-01-30T08:39:50;20.10;;;11.27;;
84925;SDS011;75187;48.190;16.294;2024-01-30T08:42:15;16.20;;;10.07;;
84925;SDS011;75187;48.190;16.294;2024-01-30T08:44:43;23.15;;;11.35;;
84925;SDS011;75187;48.190;16.294;2024-01-30T08:47:08;18.23;;;10.57;;
84925;SDS011;75187;48.190;16.294;2024-01-30T08:49:33;17.33;;;9.98;;
84925;SDS011;75187;48.190;16.294;2024-01-30T08:51:59;19.90;;;11.02;;
84925;SDS011;75187;48.190;16.294;2024-01-30T08:54:24;16.97;;;10.60;;
84925;SDS011;75187;48.190;16.294;2024-01-30T08:56:50;18.13;;;10.52;;
84925;SDS011;75187;48.190;16.294;2024-01-30T08:59:17;17.08;;;10.20;;
84925;SDS011;75187;48.190;16.294;2024-01-30T09:01:42;20.17;;;10.87;;
84925;SDS011;75187;48.190;16.294;2024-01-30T09:04:08;18.83;;;10.57;;
84925;SDS011;75187;48.190;16.294;2024-01-30T09:06:33;16.85;;;10.40;;
84925;SDS011;75187;48.190;16.294;2024-01-30T09:08:58;16.50;;;10.60;;
84925;SDS011;75187;48.190;16.294;2024-01-30T09:11:24;20.13;;;10.77;;
84925;SDS011;75187;48.190;16.294;2024-01-30T09:13:49;20.23;;;11.40;;
84925;SDS011;75187;48.190;16.294;2024-01-30T09:16:14;17.83;;;11.07;;
84925;SDS011;75187;48.190;16.294;2024-01-30T09:18:41;17.23;;;10.23;;
84925;SDS011;75187;48.190;16.294;2024-01-30T09:21:06;20.17;;;11.65;;
84925;SDS011;75187;48.190;16.294;2024-01-30T09:23:32;18.00;;;10.48;;
84925;SDS011;75187;48.190;16.294;2024-01-30T09:25:58;20.27;;;10.85;;
84925;SDS011;75187;48.190;16.294;2024-01-30T09:28:23;20.15;;;10.50;;
84925;SDS011;75187;48.190;16.294;2024-01-30T09:30:49;16.83;;;10.57;;
84925;SDS011;75187;48.190;16.294;2024-01-30T09:33:14;17.17;;;11.13;;
84925;SDS011;75187;48.190;16.294;2024-01-30T09:35:40;16.92;;;10.50;;
84925;SDS011;75187;48.190;16.294;2024-01-30T09:38:05;18.30;;;10.55;;
84925;SDS011;75187;48.190;16.294;2024-01-30T09:40:30;15.23;;;9.15;;
84925;SDS011;75187;48.190;16.294;2024-01-30T09:42:56;16.60;;;10.30;;
84925;SDS011;75187;48.190;16.294;2024-01-30T09:45:24;17.75;;;9.98;;
84925;SDS011;75187;48.190;16.294;2024-01-30T09:47:50;15.85;;;9.68;;
84925;SDS011;75187;48.190;16.294;2024-01-30T09:50:16;17.08;;;10.30;;
84925;SDS011;75187;48.190;16.294;2024-01-30T09:52:45;19.02;;;10.98;;
84925;SDS011;75187;48.190;16.294;2024-01-30T09:55:11;15.38;;;10.02;;
84925;SDS011;75187;48.190;16.294;2024-01-30T09:57:37;18.10;;;9.93;;
84925;SDS011;75187;48.190;16.294;2024-01-30T10:00:03;17.77;;;9.90;;
84925;SDS011;75187;48.190;16.294;2024-01-30T10:02:31;14.85;;;9.80;;
84925;SDS011;75187;48.190;16.294;2024-01-30T10:04:56;15.77;;;9.38;;
84925;SDS011;75187;48.190;16.294;2024-01-30T10:07:22;18.60;;;10.13;;
84925;SDS011;75187;48.190;16.294;2024-01-30T10:09:48;17.35;;;9.32;;
84925;SDS011;75187;48.190;16.294;2024-01-30T10:12:14;18.55;;;9.85;;
84925;SDS011;75187;48.190;16.294;2024-01-30T10:14:40;17.33;;;10.02;;
84925;SDS011;75187;48.190;16.294;2024-01-30T10:17:09;17.80;;;9.43;;
84925;SDS011;75187;48.190;16.294;2024-01-30T10:19:36;16.38;;;9.50;;
84925;SDS011;75187;48.190;16.294;2024-01-30T10:22:03;16.98;;;9.43;;
84925;SDS011;75187;48.190;16.294;2024-01-30T10:24:28;19.52;;;9.23;;
84925;SDS011;75187;48.190;16.294;2024-01-30T10:26:57;14.95;;;8.75;;
84925;SDS011;75187;48.190;16.294;2024-01-30T10:29:22;14.00;;;9.27;;
84925;SDS011;75187;48.190;16.294;2024-01-30T10:32:06;14.55;;;8.82;;
84925;SDS011;75187;48.190;16.294;2024-01-30T10:34:31;17.00;;;9.00;;
84925;SDS011;75187;48.190;16.294;2024-01-30T10:37:08;18.40;;;9.52;;
84925;SDS011;75187;48.190;16.294;2024-01-30T10:39:41;17.52;;;10.00;;
84925;SDS011;75187;48.190;16.294;2024-01-30T10:42:11;17.02;;;9.52;;
84925;SDS011;75187;48.190;16.294;2024-01-30T10:44:56;16.00;;;9.85;;
84925;SDS011;75187;48.190;16.294;2024-01-30T10:47:27;15.07;;;9.25;;
84925;SDS011;75187;48.190;16.294;2024-01-30T10:49:54;14.82;;;8.75;;
84925;SDS011;75187;48.190;16.294;2024-01-30T10:52:20;16.80;;;10.30;;
84925;SDS011;75187;48.190;16.294;2024-01-30T10:54:47;15.50;;;9.70;;
84925;SDS011;75187;48.190;16.294;2024-01-30T10:57:15;17.20;;;9.77;;
84925;SDS011;75187;48.190;16.294;2024-01-30T10:59:41;15.68;;;9.32;;
84925;SDS011;75187;48.190;16.294;2024-01-30T11:02:08;20.00;;;9.23;;
84925;SDS011;75187;48.190;16.294;2024-01-30T11:04:38;14.63;;;8.60;;
84925;SDS011;75187;48.190;16.294;2024-01-30T11:07:15;16.20;;;8.95;;
84925;SDS011;75187;48.190;16.294;2024-01-30T11:09:52;13.75;;;8.40;;
84925;SDS011;75187;48.190;16.294;2024-01-30T11:12:29;14.05;;;8.25;;
84925;SDS011;75187;48.190;16.294;2024-01-30T11:20:21;17.17;;;9.55;;
84925;SDS011;75187;48.190;16.294;2024-01-30T11:22:47;18.10;;;9.50;;
84925;SDS011;75187;48.190;16.294;2024-01-30T11:25:17;14.90;;;9.00;;
84925;SDS011;75187;48.190;16.294;2024-01-30T11:27:44;17.10;;;9.35;;
84925;SDS011;75187;48.190;16.294;2024-01-30T11:30:11;14.80;;;8.82;;
84925;SDS011;75187;48.190;16.294;2024-01-30T11:32:46;15.40;;;9.15;;
84925;SDS011;75187;48.190;16.294;2024-01-30T11:35:22;13.70;;;8.43;;
84925;SDS011;75187;48.190;16.294;2024-01-30T11:37:49;13.43;;;7.95;;
84925;SDS011;75187;48.190;16.294;2024-01-30T11:40:14;14.80;;;9.07;;
84925;SDS011;75187;48.190;16.294;2024-01-30T11:42:41;14.23;;;8.65;;
84925;SDS011;75187;48.190;16.294;2024-01-30T11:45:08;19.38;;;8.90;;
84925;SDS011;75187;48.190;16.294;2024-01-30T11:47:34;16.23;;;8.05;;
84925;SDS011;75187;48.190;16.294;2024-01-30T11:50:02;15.18;;;8.50;;
84925;SDS011;75187;48.190;16.294;2024-01-30T11:52:28;15.95;;;8.63;;
84925;SDS011;75187;48.190;16.294;2024-01-30T11:54:54;14.65;;;8.75;;
84925;SDS011;75187;48.190;16.294;2024-01-30T11:57:19;14.15;;;8.65;;
84925;SDS011;75187;48.190;16.294;2024-01-30T11:59:45;17.17;;;9.30;;
84925;SDS011;75187;48.190;16.294;2024-01-30T12:02:15;14.50;;;10.27;;
84925;SDS011;75187;48.190;16.294;2024-01-30T12:04:42;18.70;;;9.80;;
84925;SDS011;75187;48.190;16.294;2024-01-30T12:07:07;18.13;;;10.00;;
84925;SDS011;75187;48.190;16.294;2024-01-30T12:09:33;13.63;;;8.48;;
84925;SDS011;75187;48.190;16.294;2024-01-30T12:11:58;13.93;;;8.45;;
84925;SDS011;75187;48.190;16.294;2024-01-30T12:14:24;16.15;;;9.18;;
84925;SDS011;75187;48.190;16.294;2024-01-30T12:16:51;13.38;;;8.68;;
84925;SDS011;75187;48.190;16.294;2024-01-30T12:19:25;17.27;;;9.33;;
84925;SDS011;75187;48.190;16.294;2024-01-30T12:21:57;14.73;;;9.00;;
84925;SDS011;75187;48.190;16.294;2024-01-30T12:24:24;11.90;;;9.10;;
84925;SDS011;75187;48.190;16.294;2024-01-30T12:26:56;15.93;;;9.05;;
84925;SDS011;75187;48.190;16.294;2024-01-30T12:29:25;16.02;;;8.73;;
84925;SDS011;75187;48.190;16.294;2024-01-30T12:31:52;16.48;;;9.27;;
84925;SDS011;75187;48.190;16.294;2024-01-30T12:34:19;13.73;;;8.95;;
84925;SDS011;75187;48.190;16.294;2024-01-30T12:36:46;13.40;;;9.32;;
84925;SDS011;75187;48.190;16.294;2024-01-30T12:39:12;14.77;;;9.05;;
84925;SDS011;75187;48.190;16.294;2024-01-30T12:41:39;14.20;;;8.63;;
84925;SDS011;75187;48.190;16.294;2024-01-30T12:44:05;17.30;;;9.57;;
84925;SDS011;75187;48.190;16.294;2024-01-30T12:46:30;16.75;;;9.25;;
84925;SDS011;75187;48.190;16.294;2024-01-30T12:48:56;13.95;;;8.35;;
84925;SDS011;75187;48.190;16.294;2024-01-30T12:51:21;15.68;;;9.13;;
84925;SDS011;75187;48.190;16.294;2024-01-30T12:53:47;14.23;;;8.98;;
84925;SDS011;75187;48.190;16.294;2024-01-30T12:56:13;13.35;;;8.77;;
84925;SDS011;75187;48.190;16.294;2024-01-30T12:58:39;15.15;;;10.15;;
84925;SDS011;75187;48.190;16.294;2024-01-30T13:01:06;16.67;;;8.63;;
84925;SDS011;75187;48.190;16.294;2024-01-30T13:03:32;16.33;;;8.70;;
84925;SDS011;75187;48.190;16.294;2024-01-30T13:05:57;13.77;;;8.52;;
84925;SDS011;75187;48.190;16.294;2024-01-30T13:08:23;15.60;;;9.10;;
84925;SDS011;75187;48.190;16.294;2024-01-30T13:10:49;12.82;;;8.43;;
84925;SDS011;75187;48.190;16.294;2024-01-30T13:13:14;16.60;;;9.00;;
84925;SDS011;75187;48.190;16.294;2024-01-30T13:15:40;16.63;;;8.60;;
84925;SDS011;75187;48.190;16.294;2024-01-30T13:18:05;15.60;;;8.47;;
84925;SDS011;75187;48.190;16.294;2024-01-30T13:20:31;17.75;;;8.02;;
84925;SDS011;75187;48.190;16.294;2024-01-30T13:22:56;14.63;;;8.15;;
84925;SDS011;75187;48.190;16.294;2024-01-30T13:25:22;12.95;;;9.13;;
84925;SDS011;75187;48.190;16.294;2024-01-30T13:27:47;12.57;;;8.27;;
84925;SDS011;75187;48.190;16.294;2024-01-30T13:30:12;14.15;;;8.38;;
84925;SDS011;75187;48.190;16.294;2024-01-30T13:32:39;13.10;;;9.07;;
84925;SDS011;75187;48.190;16.294;2024-01-30T13:35:06;15.25;;;9.07;;
84925;SDS011;75187;48.190;16.294;2024-01-30T13:37:31;12.90;;;8.52;;
84925;SDS011;75187;48.190;16.294;2024-01-30T13:39:56;11.80;;;7.63;;
84925;SDS011;75187;48.190;16.294;2024-01-30T13:42:22;14.13;;;8.40;;
84925;SDS011;75187;48.190;16.294;2024-01-30T13:44:48;14.00;;;8.52;;
84925;SDS011;75187;48.190;16.294;2024-01-30T13:47:13;14.50;;;8.63;;
84925;SDS011;75187;48.190;16.294;2024-01-30T13:49:39;13.27;;;8.75;;
84925;SDS011;75187;48.190;16.294;2024-01-30T13:52:04;14.85;;;8.18;;
84925;SDS011;75187;48.190;16.294;2024-01-30T13:54:30;14.38;;;8.65;;
84925;SDS011;75187;48.190;16.294;2024-01-30T13:56:55;13.30;;;8.10;;
84925;SDS011;75187;48.190;16.294;2024-01-30T13:59:21;13.35;;;8.55;;
84925;SDS011;75187;48.190;16.294;2024-01-30T14:01:49;14.63;;;8.80;;
84925;SDS011;75187;48.190;16.294;2024-01-30T14:04:15;13.05;;;8.27;;
84925;SDS011;75187;48.190;16.294;2024-01-30T14:06:40;14.77;;;9.17;;
84925;SDS011;75187;48.190;16.294;2024-01-30T14:09:06;12.38;;;8.40;;
84925;SDS011;75187;48.190;16.294;2024-01-30T14:11:31;14.43;;;8.20;;
84925;SDS011;75187;48.190;16.294;2024-01-30T14:13:57;13.45;;;8.10;;